createdAt,value
2023-04-23T00:03:10.706Z,60.37
2023-04-23T00:08:18.075Z,60.55
2023-04-23T00:13:21.899Z,61.75
2023-04-23T00:18:27.106Z,62.68
2023-04-23T00:23:30.850Z,61.77
2023-04-23T00:28:34.244Z,62.00
2023-04-23T00:33:39.746Z,61.17
2023-04-23T00:38:43.203Z,62.10
2023-04-23T00:43:47.010Z,61.97
2023-04-23T00:48:52.394Z,62.18
2023-04-23T00:53:55.719Z,62.27
2023-04-23T00:58:59.242Z,63.39
2023-04-23T01:04:04.359Z,64.17
2023-04-23T01:09:09.922Z,64.25
2023-04-23T01:14:13.401Z,63.40
2023-04-23T01:19:18.045Z,63.55
2023-04-23T01:24:22.988Z,63.84
2023-04-23T01:29:26.731Z,63.31
2023-04-23T01:34:32.082Z,63.96
2023-04-23T01:39:37.317Z,64.41
2023-04-23T01:44:41.294Z,65.08
2023-04-23T01:49:45.016Z,64.60
2023-04-23T01:54:49.652Z,64.65
2023-04-23T01:59:52.941Z,64.99
2023-04-23T02:04:57.093Z,65.65
2023-04-23T02:10:03.253Z,65.17
2023-04-23T02:15:08.984Z,65.71
2023-04-23T02:20:32.451Z,65.36
2023-04-23T02:25:38.633Z,65.45
2023-04-23T02:30:46.121Z,66.94
2023-04-23T02:35:49.560Z,67.58
2023-04-23T02:40:54.973Z,66.54
2023-04-23T02:45:58.310Z,65.59
2023-04-23T02:51:03.165Z,65.66
2023-04-23T02:56:08.500Z,65.62
2023-04-23T03:01:12.227Z,65.90
2023-04-23T03:06:15.934Z,65.71
2023-04-23T03:11:21.422Z,66.21
2023-04-23T03:16:24.744Z,65.79
2023-04-23T03:21:28.534Z,65.18
2023-04-23T03:26:33.169Z,65.36
2023-04-23T03:31:36.528Z,64.65
2023-04-23T03:36:39.912Z,64.86
2023-04-23T03:41:44.992Z,64.39
2023-04-23T03:46:48.317Z,63.15
2023-04-23T03:51:51.590Z,62.81
2023-04-23T03:56:57.824Z,62.33
2023-04-23T04:02:01.385Z,60.43
2023-04-23T04:07:05.783Z,60.40
2023-04-23T04:12:10.653Z,58.98
2023-04-23T04:17:16.190Z,58.17
2023-04-23T04:22:19.547Z,56.05
2023-04-23T04:27:24.436Z,55.00
2023-04-23T04:32:27.871Z,54.12
2023-04-23T04:37:32.228Z,52.84
2023-04-23T04:42:37.432Z,50.42
2023-04-23T04:47:41.430Z,49.50
2023-04-23T04:52:44.894Z,48.18
2023-04-23T04:57:49.524Z,46.05
2023-04-23T05:02:53.298Z,45.20
2023-04-23T05:07:59.394Z,45.18
2023-04-23T05:13:04.166Z,42.94
2023-04-23T05:18:08.115Z,42.62
2023-04-23T05:23:12.380Z,42.00
2023-04-23T05:28:16.969Z,41.65
2023-04-23T05:33:20.531Z,41.68
2023-04-23T05:38:23.791Z,42.32
2023-04-23T05:43:28.864Z,41.28
2023-04-23T05:48:32.069Z,40.16
2023-04-23T05:53:35.843Z,40.06
2023-04-23T05:58:40.596Z,40.69
2023-04-23T06:03:45.717Z,40.04
2023-04-23T06:08:51.077Z,39.35
2023-04-23T06:13:56.675Z,38.49
2023-04-23T06:19:00.165Z,37.40
2023-04-23T06:24:03.525Z,36.69
2023-04-23T06:29:08.278Z,36.54
2023-04-23T06:34:11.670Z,35.94
2023-04-23T06:39:15.065Z,35.20
2023-04-23T06:44:19.714Z,34.80
2023-04-23T06:49:23.196Z,34.74
2023-04-23T06:54:26.636Z,33.88
2023-04-23T06:59:31.328Z,32.67
2023-04-23T07:04:35.102Z,32.59
2023-04-23T07:09:38.559Z,32.12
2023-04-23T07:14:43.498Z,31.69
2023-04-23T07:19:46.930Z,31.19
2023-04-23T07:24:50.417Z,30.07
2023-04-23T07:29:55.973Z,28.67
2023-04-23T07:34:59.304Z,28.49
2023-04-23T07:40:02.559Z,28.65
2023-04-23T07:45:10.279Z,27.99
2023-04-23T07:50:13.915Z,27.95
2023-04-23T07:55:17.340Z,28.02
2023-04-23T08:00:22.249Z,23.05
2023-04-23T08:05:26.993Z,19.99
2023-04-23T08:10:30.673Z,17.38
2023-04-23T08:15:35.694Z,18.38
2023-04-23T08:20:39.374Z,20.93
2023-04-23T08:25:42.902Z,21.01
2023-04-23T08:30:48.125Z,18.66
2023-04-23T08:35:51.497Z,16.30
2023-04-23T08:40:58.589Z,14.21
2023-04-23T08:46:05.472Z,15.24
2023-04-23T08:51:11.361Z,14.40
2023-04-23T08:56:16.052Z,14.73
2023-04-23T09:01:21.147Z,14.49
2023-04-23T09:06:24.691Z,13.43
2023-04-23T09:11:29.116Z,12.76
2023-04-23T09:16:34.348Z,12.34
2023-04-23T09:21:38.125Z,14.32
2023-04-23T09:26:46.972Z,14.01
2023-04-23T09:31:53.529Z,15.32
2023-04-23T09:36:56.869Z,15.39
2023-04-23T09:42:05.533Z,12.92
2023-04-23T09:47:12.361Z,10.91
2023-04-23T09:52:15.925Z,10.46
2023-04-23T09:57:19.533Z,11.66
2023-04-23T10:02:28.834Z,13.57
2023-04-23T10:07:34.054Z,14.26
2023-04-23T10:12:53.536Z,15.23
2023-04-23T10:18:00.818Z,16.64
2023-04-23T10:23:05.158Z,13.37
2023-04-23T10:28:12.945Z,10.84
2023-04-23T10:33:28.882Z,10.54
2023-04-23T10:38:33.485Z,12.65
2023-04-23T10:43:37.575Z,14.72
2023-04-23T10:49:07.730Z,16.37
2023-04-23T10:54:12.376Z,16.33
2023-04-23T10:59:25.099Z,15.52
2023-04-23T11:04:32.026Z,12.32
2023-04-23T11:09:42.733Z,9.83
2023-04-23T11:14:50.812Z,11.39
2023-04-23T11:20:15.618Z,10.89
2023-04-23T11:25:22.204Z,11.59
2023-04-23T11:30:27.645Z,12.82
2023-04-23T11:35:40.143Z,14.91
2023-04-23T11:40:44.123Z,11.40
2023-04-23T11:45:48.267Z,8.85
2023-04-23T11:50:54.154Z,8.55
2023-04-23T11:55:57.569Z,8.82
2023-04-23T12:01:01.517Z,9.65
2023-04-23T12:06:06.988Z,9.50
2023-04-23T12:11:13.176Z,9.67
2023-04-23T12:16:16.558Z,9.48
2023-04-23T12:21:21.954Z,9.33
2023-04-23T12:26:27.971Z,9.33
2023-04-23T12:31:31.862Z,9.23
2023-04-23T12:36:37.942Z,10.08
2023-04-23T12:41:41.373Z,9.85
2023-04-23T12:46:44.609Z,9.31
2023-04-23T12:51:49.398Z,9.30
2023-04-23T12:56:52.672Z,9.45
2023-04-23T13:01:56.532Z,9.87
2023-04-23T13:07:01.898Z,10.96
2023-04-23T13:12:05.715Z,11.46
2023-04-23T13:17:08.931Z,11.56
2023-04-23T13:22:13.523Z,10.57
2023-04-23T13:27:16.810Z,10.50
2023-04-23T13:32:22.090Z,9.93
2023-04-23T13:37:28.507Z,10.74
2023-04-23T13:42:31.877Z,10.81
2023-04-23T13:47:35.500Z,10.29
2023-04-23T13:52:40.459Z,9.71
2023-04-23T13:57:43.950Z,10.22
2023-04-23T14:02:47.332Z,10.32
2023-04-23T14:07:52.315Z,10.89
2023-04-23T14:12:56.843Z,10.09
2023-04-23T14:18:00.512Z,10.87
2023-04-23T14:23:33.157Z,11.62
2023-04-23T14:28:41.564Z,12.16
2023-04-23T14:33:45.196Z,12.21
2023-04-23T14:38:49.973Z,12.19
2023-04-23T14:43:53.346Z,12.25
2023-04-23T14:48:56.818Z,12.50
2023-04-23T14:54:01.676Z,12.07
2023-04-23T14:59:05.636Z,12.85
2023-04-23T15:04:09.151Z,14.04
2023-04-23T15:09:14.105Z,13.80
2023-04-23T15:14:22.134Z,14.93
2023-04-23T15:19:25.484Z,15.44
2023-04-23T15:24:30.204Z,17.19
2023-04-23T15:29:33.518Z,19.07
2023-04-23T15:34:36.915Z,20.48
2023-04-23T15:39:42.044Z,21.17
2023-04-23T15:44:50.597Z,22.02
2023-04-23T15:49:53.848Z,22.81
2023-04-23T15:54:58.571Z,23.48
2023-04-23T16:00:02.126Z,24.01
2023-04-23T16:05:08.572Z,24.35
2023-04-23T16:10:13.937Z,24.50
2023-04-23T16:15:17.277Z,24.90
2023-04-23T16:20:20.668Z,25.37
2023-04-23T16:25:26.106Z,25.98
2023-04-23T16:30:29.516Z,26.08
2023-04-23T16:35:32.822Z,26.54
2023-04-23T16:40:39.473Z,26.91
2023-04-23T16:45:42.821Z,27.37
2023-04-23T16:50:46.050Z,27.35
2023-04-23T16:55:50.816Z,27.87
2023-04-23T17:00:54.156Z,28.67
2023-04-23T17:06:10.192Z,29.55
2023-04-23T17:11:14.911Z,29.64
2023-04-23T17:16:18.695Z,29.47
2023-04-23T17:21:22.756Z,29.82
2023-04-23T17:26:27.748Z,30.85
2023-04-23T17:31:31.261Z,31.27
2023-04-23T17:36:34.497Z,31.95
2023-04-23T17:41:39.674Z,32.49
2023-04-23T17:46:43.055Z,32.69
2023-04-23T17:51:46.869Z,32.92
2023-04-23T17:56:51.900Z,33.62
2023-04-23T18:01:55.498Z,34.14
2023-04-23T18:06:59.063Z,35.29
2023-04-23T18:12:04.878Z,35.83
2023-04-23T18:17:08.817Z,36.01
2023-04-23T18:22:12.590Z,36.36
2023-04-23T18:27:17.644Z,37.03
2023-04-23T18:32:33.639Z,37.00
2023-04-23T18:37:39.675Z,37.68
2023-04-23T18:42:44.465Z,38.31
2023-04-23T18:47:52.866Z,38.61
2023-04-23T18:52:56.121Z,39.06
2023-04-23T18:58:00.981Z,40.17
2023-04-23T19:03:15.251Z,40.58
2023-04-23T19:08:29.546Z,40.97
2023-04-23T19:13:34.204Z,41.71
2023-04-23T19:18:37.758Z,41.88
2023-04-23T19:23:41.175Z,42.34
2023-04-23T19:28:45.985Z,42.73
2023-04-23T19:33:49.247Z,42.71
2023-04-23T19:38:52.597Z,44.11
2023-04-23T19:43:57.725Z,44.51
2023-04-23T19:49:01.004Z,44.43
2023-04-23T19:54:04.243Z,44.46
2023-04-23T19:59:13.858Z,45.38
2023-04-23T20:04:17.233Z,45.54
2023-04-23T20:09:21.978Z,46.20
2023-04-23T20:14:26.942Z,46.53
2023-04-23T20:19:30.889Z,46.39
2023-04-23T20:24:35.497Z,46.44
2023-04-23T20:29:40.237Z,47.46
2023-04-23T20:34:43.766Z,47.00
2023-04-23T20:39:47.198Z,47.95
2023-04-23T20:44:52.448Z,48.35
2023-04-23T20:49:55.647Z,48.43
2023-04-23T20:54:59.032Z,49.74
2023-04-23T21:00:04.947Z,49.68
2023-04-23T21:05:09.602Z,50.00
2023-04-23T21:10:13.070Z,50.37
2023-04-23T21:15:18.742Z,50.23
2023-04-23T21:20:22.254Z,50.56
2023-04-23T21:25:26.847Z,50.94
2023-04-23T21:30:40.283Z,50.68
2023-04-23T21:35:43.727Z,51.09
2023-04-23T21:40:47.485Z,50.95
2023-04-23T21:45:52.199Z,51.36
2023-04-23T21:50:55.389Z,51.50
2023-04-23T21:55:58.994Z,51.73
2023-04-23T22:01:04.147Z,52.63
2023-04-23T22:06:08.419Z,53.05
2023-04-23T22:11:11.912Z,52.88
2023-04-23T22:16:27.521Z,52.43
2023-04-23T22:21:31.773Z,52.57
2023-04-23T22:26:36.187Z,53.34
2023-04-23T22:31:41.223Z,53.74
2023-04-23T22:36:44.533Z,54.09
2023-04-23T22:41:47.733Z,54.09
2023-04-23T22:46:52.552Z,54.96
2023-04-23T22:51:56.181Z,54.44
2023-04-23T22:56:59.705Z,55.13
2023-04-23T23:02:04.696Z,55.71
2023-04-23T23:07:08.470Z,55.66
2023-04-23T23:12:11.713Z,56.51
2023-04-23T23:17:16.373Z,56.98
2023-04-23T23:22:19.653Z,57.57
2023-04-23T23:27:23.047Z,57.16
2023-04-23T23:32:27.956Z,57.53
2023-04-23T23:37:31.429Z,57.92
2023-04-23T23:42:34.656Z,57.80
2023-04-23T23:47:39.423Z,58.50
2023-04-23T23:52:43.463Z,58.72
2023-04-23T23:57:46.654Z,58.97
